createdAt,value
2023-03-21T00:01:53.208Z,5.07
2023-03-21T00:04:21.354Z,5.22
2023-03-21T00:06:49.421Z,5.25
2023-03-21T00:09:17.575Z,5.72
2023-03-21T00:11:46.477Z,5.37
2023-03-21T00:14:15.220Z,5.05
2023-03-21T00:16:45.880Z,5.50
2023-03-21T00:19:15.901Z,5.40
2023-03-21T00:21:59.633Z,5.22
2023-03-21T00:24:31.978Z,4.80
2023-03-21T00:27:10.731Z,5.43
2023-03-21T00:29:49.337Z,5.80
2023-03-21T00:32:20.225Z,5.40
2023-03-21T00:35:34.768Z,5.15
2023-03-21T00:37:38.994Z,4.70
2023-03-21T00:40:16.262Z,5.18
2023-03-21T00:42:47.489Z,5.40
2023-03-21T00:45:16.622Z,5.45
2023-03-21T00:47:44.718Z,5.47
2023-03-21T00:50:15.529Z,5.43
2023-03-21T00:52:43.422Z,5.72
2023-03-21T00:55:14.607Z,5.75
2023-03-21T00:57:43.756Z,5.88
2023-03-21T01:00:18.061Z,5.47
2023-03-21T01:03:02.711Z,5.00
2023-03-21T01:05:53.089Z,5.35
2023-03-21T01:08:29.273Z,6.07
2023-03-21T01:11:04.203Z,6.00
2023-03-21T01:13:34.605Z,5.90
2023-03-21T01:16:06.157Z,5.87
2023-03-21T01:18:35.487Z,6.22
2023-03-21T01:21:08.930Z,6.65
2023-03-21T01:23:37.181Z,6.13
2023-03-21T01:26:06.133Z,6.82
2023-03-21T01:28:34.600Z,6.87
2023-03-21T01:31:04.298Z,6.72
2023-03-21T01:33:33.012Z,6.38
2023-03-21T01:36:12.337Z,6.35
2023-03-21T01:38:43.054Z,6.93
2023-03-21T01:41:20.397Z,6.23
2023-03-21T01:43:49.510Z,6.82
2023-03-21T01:46:51.491Z,7.00
2023-03-21T01:49:46.892Z,6.68
2023-03-21T01:52:35.872Z,5.72
2023-03-21T01:55:12.627Z,5.67
2023-03-21T01:58:07.585Z,6.75
2023-03-21T02:00:52.316Z,6.90
2023-03-21T02:03:35.832Z,6.43
2023-03-21T02:06:31.932Z,6.03
2023-03-21T02:09:12.918Z,6.53
2023-03-21T02:11:46.478Z,6.68
2023-03-21T02:14:28.435Z,7.15
2023-03-21T02:17:22.635Z,6.30
2023-03-21T02:20:22.031Z,7.05
2023-03-21T02:23:11.138Z,7.00
2023-03-21T02:26:21.365Z,6.30
2023-03-21T02:28:57.489Z,7.22
2023-03-21T02:31:32.891Z,7.22
2023-03-21T02:34:37.201Z,6.97
2023-03-21T02:37:23.564Z,7.57
2023-03-21T02:40:06.314Z,6.57
2023-03-21T02:42:51.631Z,7.45
2023-03-21T02:45:31.327Z,6.63
2023-03-21T02:48:06.978Z,7.13
2023-03-21T02:50:41.841Z,8.47
2023-03-21T02:53:14.133Z,7.72
2023-03-21T02:55:44.977Z,7.88
2023-03-21T02:58:17.557Z,7.57
2023-03-21T03:00:51.841Z,8.00
2023-03-21T03:03:34.322Z,7.50
2023-03-21T03:06:17.044Z,7.35
2023-03-21T03:09:02.926Z,7.75
2023-03-21T03:11:34.538Z,7.07
2023-03-21T03:14:49.838Z,7.60
2023-03-21T03:17:31.810Z,8.00
2023-03-21T03:20:17.445Z,7.43
2023-03-21T03:22:55.835Z,7.28
2023-03-21T03:25:42.066Z,6.93
2023-03-21T03:28:16.134Z,7.00
2023-03-21T03:30:57.393Z,7.30
2023-03-21T03:33:31.860Z,7.47
2023-03-21T03:36:06.801Z,7.35
2023-03-21T03:38:39.504Z,8.00
2023-03-21T03:41:17.604Z,8.50
2023-03-21T03:43:54.926Z,7.73
2023-03-21T03:46:32.057Z,7.95
2023-03-21T03:49:05.488Z,7.70
2023-03-21T03:51:37.776Z,8.73
2023-03-21T03:54:28.720Z,8.43
2023-03-21T03:56:58.441Z,7.40
2023-03-21T03:59:26.785Z,8.73
2023-03-21T04:02:06.882Z,8.77
2023-03-21T04:04:36.825Z,7.97
2023-03-21T04:07:06.400Z,7.90
2023-03-21T04:09:43.999Z,7.50
2023-03-21T04:12:16.762Z,7.38
2023-03-21T04:15:09.521Z,8.30
2023-03-21T04:17:40.443Z,7.50
2023-03-21T04:20:13.926Z,7.57
2023-03-21T04:22:44.632Z,7.93
2023-03-21T04:25:18.966Z,7.65
2023-03-21T04:27:57.896Z,7.30
2023-03-21T04:30:43.428Z,7.10
2023-03-21T04:33:20.874Z,8.10
2023-03-21T04:35:56.414Z,6.93
2023-03-21T04:38:30.804Z,8.32
2023-03-21T04:41:02.502Z,8.60
2023-03-21T04:43:32.736Z,8.70
2023-03-21T04:46:00.713Z,8.05
2023-03-21T04:48:28.791Z,6.90
2023-03-21T04:50:57.809Z,7.22
2023-03-21T04:53:26.009Z,7.40
2023-03-21T04:55:55.569Z,7.18
2023-03-21T04:58:24.140Z,6.97
2023-03-21T05:00:53.829Z,6.40
2023-03-21T05:03:21.971Z,6.97
2023-03-21T05:05:50.505Z,7.68
2023-03-21T05:08:20.498Z,6.85
2023-03-21T05:10:48.356Z,6.72
2023-03-21T05:13:16.347Z,7.20
2023-03-21T05:15:44.229Z,7.03
2023-03-21T05:18:13.629Z,6.82
2023-03-21T05:20:59.782Z,7.13
2023-03-21T05:23:31.767Z,7.15
2023-03-21T05:25:59.922Z,6.63
2023-03-21T05:28:40.434Z,7.25
2023-03-21T05:31:09.420Z,7.70
2023-03-21T05:33:38.977Z,7.63
2023-03-21T05:36:07.618Z,7.13
2023-03-21T05:38:35.694Z,7.50
2023-03-21T05:41:03.639Z,7.22
2023-03-21T05:43:32.884Z,8.65
2023-03-21T05:46:00.853Z,6.93
2023-03-21T05:48:31.275Z,7.75
2023-03-21T05:51:12.095Z,7.23
2023-03-21T05:53:40.168Z,6.70
2023-03-21T05:56:09.442Z,6.85
2023-03-21T05:58:57.692Z,7.60
2023-03-21T06:01:26.279Z,6.90
2023-03-21T06:04:07.680Z,6.67
2023-03-21T06:06:37.601Z,6.20
2023-03-21T06:09:06.661Z,7.43
2023-03-21T06:11:36.990Z,6.60
2023-03-21T06:14:37.110Z,6.47
2023-03-21T06:17:16.637Z,7.17
2023-03-21T06:19:50.089Z,6.20
2023-03-21T06:22:30.379Z,6.63
2023-03-21T06:24:58.262Z,6.40
2023-03-21T06:27:26.444Z,7.07
2023-03-21T06:29:57.989Z,7.47
2023-03-21T06:32:26.555Z,7.03
2023-03-21T06:35:02.465Z,6.85
2023-03-21T06:37:31.965Z,6.03
2023-03-21T06:39:59.895Z,6.80
2023-03-21T06:42:27.979Z,6.10
2023-03-21T06:45:01.106Z,6.65
2023-03-21T06:47:29.636Z,6.60
2023-03-21T06:49:57.624Z,6.22
2023-03-21T06:52:25.858Z,6.65
2023-03-21T06:54:56.266Z,6.00
2023-03-21T06:57:24.194Z,6.05
2023-03-21T06:59:52.090Z,6.53
2023-03-21T07:02:22.290Z,6.40
2023-03-21T07:05:05.589Z,6.32
2023-03-21T07:07:33.658Z,6.70
2023-03-21T07:10:02.864Z,6.88
2023-03-21T07:12:36.263Z,6.88
2023-03-21T07:15:18.253Z,6.72
2023-03-21T07:17:47.309Z,6.45
2023-03-21T07:20:15.177Z,7.60
2023-03-21T07:22:43.359Z,6.80
2023-03-21T07:25:12.567Z,7.47
2023-03-21T07:27:42.219Z,6.65
2023-03-21T07:30:11.695Z,7.50
2023-03-21T07:32:40.682Z,6.87
2023-03-21T07:35:11.935Z,6.82
2023-03-21T07:37:40.325Z,6.65
2023-03-21T07:40:10.686Z,6.78
2023-03-21T07:42:41.992Z,6.55
2023-03-21T07:45:16.463Z,6.70
2023-03-21T07:47:46.243Z,6.70
2023-03-21T07:50:14.690Z,7.03
2023-03-21T07:52:42.964Z,6.60
2023-03-21T07:55:11.092Z,6.88
2023-03-21T07:57:39.053Z,6.80
2023-03-21T08:00:10.827Z,6.38
2023-03-21T08:02:43.235Z,7.57
2023-03-21T08:05:11.970Z,7.10
2023-03-21T08:07:39.876Z,7.70
2023-03-21T08:10:10.719Z,7.13
2023-03-21T08:12:39.850Z,6.50
2023-03-21T08:15:09.979Z,5.72
2023-03-21T08:17:39.832Z,6.65
2023-03-21T08:20:11.978Z,6.38
2023-03-21T08:22:39.981Z,6.00
2023-03-21T08:25:10.138Z,5.90
2023-03-21T08:27:37.960Z,6.40
2023-03-21T08:30:06.809Z,5.82
2023-03-21T08:32:38.556Z,5.70
2023-03-21T08:35:10.016Z,5.37
2023-03-21T08:37:37.895Z,5.70
2023-03-21T08:40:09.154Z,5.75
2023-03-21T08:42:37.039Z,5.93
2023-03-21T08:45:05.827Z,5.40
2023-03-21T08:47:34.063Z,5.37
2023-03-21T08:50:06.574Z,5.93
2023-03-21T08:52:35.186Z,5.50
2023-03-21T08:55:03.732Z,5.75
2023-03-21T08:57:32.008Z,7.00
2023-03-21T08:59:59.919Z,5.40
2023-03-21T09:02:27.972Z,5.68
2023-03-21T09:04:59.104Z,5.28
2023-03-21T09:07:28.495Z,5.78
2023-03-21T09:10:15.085Z,6.10
2023-03-21T09:12:44.523Z,5.63
2023-03-21T09:15:13.473Z,5.72
2023-03-21T09:17:43.258Z,6.07
2023-03-21T09:20:18.651Z,5.53
2023-03-21T09:22:49.602Z,5.80
2023-03-21T09:25:17.760Z,5.33
2023-03-21T09:27:46.614Z,6.32
2023-03-21T09:30:17.041Z,6.20
2023-03-21T09:32:49.522Z,6.10
2023-03-21T09:35:18.715Z,6.28
2023-03-21T09:37:49.812Z,4.80
2023-03-21T09:40:23.237Z,5.30
2023-03-21T09:42:59.928Z,5.95
2023-03-21T09:45:38.736Z,6.50
2023-03-21T09:48:17.592Z,6.45
2023-03-21T09:50:46.605Z,5.73
2023-03-21T09:53:23.556Z,6.10
2023-03-21T09:55:51.940Z,6.22
2023-03-21T09:58:27.195Z,6.05
2023-03-21T10:01:27.307Z,6.15
2023-03-21T10:03:56.212Z,5.50
2023-03-21T10:06:28.881Z,5.75
2023-03-21T10:09:01.429Z,6.18
2023-03-21T10:11:34.006Z,6.22
2023-03-21T10:14:05.855Z,7.00
2023-03-21T10:16:37.533Z,6.30
2023-03-21T10:19:11.477Z,6.38
2023-03-21T10:21:59.833Z,6.07
2023-03-21T10:24:34.368Z,6.47
2023-03-21T10:27:04.320Z,6.18
2023-03-21T10:29:43.304Z,6.27
2023-03-21T10:32:14.875Z,5.97
2023-03-21T10:34:46.395Z,6.10
2023-03-21T10:37:16.767Z,6.43
2023-03-21T10:39:49.559Z,6.25
2023-03-21T10:42:22.219Z,6.23
2023-03-21T10:44:52.351Z,6.25
2023-03-21T10:47:22.254Z,7.03
2023-03-21T10:50:06.807Z,5.78
2023-03-21T10:52:38.130Z,6.00
2023-03-21T10:55:13.585Z,5.87
2023-03-21T10:57:41.744Z,6.07
2023-03-21T11:00:21.095Z,5.82
2023-03-21T11:02:51.280Z,5.10
2023-03-21T11:05:25.205Z,5.22
2023-03-21T11:08:01.517Z,5.60
2023-03-21T11:10:33.684Z,5.70
2023-03-21T11:13:07.362Z,5.68
2023-03-21T11:15:43.180Z,5.38
2023-03-21T11:18:21.246Z,5.68
2023-03-21T11:20:54.934Z,5.57
2023-03-21T11:23:28.044Z,5.95
2023-03-21T11:25:58.306Z,5.38
2023-03-21T11:28:33.309Z,4.80
2023-03-21T11:31:03.658Z,5.03
2023-03-21T11:33:36.527Z,5.50
2023-03-21T11:36:06.828Z,4.85
2023-03-21T11:38:39.627Z,5.20
2023-03-21T11:41:09.068Z,5.45
2023-03-21T11:43:39.143Z,5.68
2023-03-21T11:46:09.547Z,5.87
2023-03-21T11:48:41.576Z,5.18
2023-03-21T11:51:15.800Z,5.15
2023-03-21T11:53:50.016Z,5.50
2023-03-21T11:56:27.075Z,5.00
2023-03-21T11:59:22.075Z,4.63
2023-03-21T12:02:12.334Z,5.70
2023-03-21T12:04:47.368Z,5.40
2023-03-21T12:07:30.257Z,5.28
2023-03-21T12:10:12.551Z,5.38
2023-03-21T12:12:52.127Z,4.93
2023-03-21T12:15:27.827Z,5.28
2023-03-21T12:18:03.759Z,4.90
2023-03-21T12:20:41.308Z,5.32
2023-03-21T12:23:22.411Z,4.80
2023-03-21T12:25:56.560Z,5.37
2023-03-21T12:28:38.975Z,4.97
2023-03-21T12:31:12.876Z,5.20
2023-03-21T12:33:54.530Z,4.60
2023-03-21T12:36:37.027Z,5.20
2023-03-21T12:39:15.680Z,4.90
2023-03-21T12:41:46.544Z,4.90
2023-03-21T12:44:17.670Z,4.97
2023-03-21T12:46:50.132Z,4.40
2023-03-21T12:49:25.856Z,5.05
2023-03-21T12:51:59.867Z,4.83
2023-03-21T12:54:31.475Z,4.88
2023-03-21T12:57:05.892Z,4.93
2023-03-21T12:59:39.793Z,5.00
2023-03-21T13:02:19.350Z,4.15
2023-03-21T13:04:59.506Z,4.20
2023-03-21T13:07:34.653Z,3.72
2023-03-21T13:10:04.765Z,4.28
2023-03-21T13:12:46.084Z,4.40
2023-03-21T13:15:41.312Z,4.20
2023-03-21T13:18:19.343Z,4.20
2023-03-21T13:20:50.679Z,3.70
2023-03-21T13:23:19.692Z,4.68
2023-03-21T13:25:49.267Z,3.88
2023-03-21T13:28:25.330Z,4.43
2023-03-21T13:30:55.050Z,3.80
2023-03-21T13:33:26.487Z,3.83
2023-03-21T13:36:05.302Z,4.88
2023-03-21T13:38:36.374Z,3.50
2023-03-21T13:41:08.972Z,3.78
2023-03-21T13:43:53.427Z,3.10
2023-03-21T13:46:53.867Z,3.60
2023-03-21T13:49:38.678Z,3.92
2023-03-21T13:52:27.459Z,3.67
2023-03-21T13:54:56.955Z,3.28
2023-03-21T13:57:39.693Z,3.27
2023-03-21T14:00:21.971Z,3.40
2023-03-21T14:03:06.944Z,3.20
2023-03-21T14:05:35.621Z,3.08
2023-03-21T14:08:19.252Z,3.50
2023-03-21T14:10:57.001Z,2.67
2023-03-21T14:13:29.634Z,3.20
2023-03-21T14:16:05.687Z,3.20
2023-03-21T14:18:59.589Z,3.08
2023-03-21T14:21:31.224Z,2.90
2023-03-21T14:24:01.919Z,2.67
2023-03-21T14:26:33.221Z,3.45
2023-03-21T14:29:05.234Z,2.92
2023-03-21T14:31:34.441Z,3.20
2023-03-21T14:34:05.404Z,3.22
2023-03-21T14:36:43.185Z,2.90
2023-03-21T14:39:16.946Z,3.50
2023-03-21T14:41:48.571Z,3.00
2023-03-21T14:44:25.392Z,2.60
2023-03-21T14:46:55.231Z,2.60
2023-03-21T14:49:28.077Z,3.13
2023-03-21T14:51:58.961Z,2.92
2023-03-21T14:54:28.388Z,3.00
2023-03-21T14:57:01.478Z,2.97
2023-03-21T14:59:35.554Z,2.70
2023-03-21T15:02:08.435Z,2.70
2023-03-21T15:04:37.965Z,2.78
2023-03-21T15:07:07.862Z,2.90
2023-03-21T15:09:36.468Z,2.53
2023-03-21T15:12:09.745Z,2.35
2023-03-21T15:14:39.062Z,2.40
2023-03-21T15:17:09.195Z,2.60
2023-03-21T15:19:40.169Z,2.60
2023-03-21T15:22:16.293Z,2.58
2023-03-21T15:24:48.849Z,1.98
2023-03-21T15:27:19.671Z,2.50
2023-03-21T15:29:49.134Z,2.58
2023-03-21T15:32:22.489Z,2.70
2023-03-21T15:34:55.089Z,2.67
2023-03-21T15:37:26.504Z,1.95
2023-03-21T15:39:55.756Z,2.20
2023-03-21T15:42:28.390Z,2.40
2023-03-21T15:44:59.229Z,2.20
2023-03-21T15:47:53.247Z,2.42
2023-03-21T15:50:34.902Z,2.17
2023-03-21T15:53:05.572Z,2.00
2023-03-21T15:55:43.436Z,2.20
2023-03-21T15:58:18.130Z,2.13
2023-03-21T16:00:54.334Z,1.80
2023-03-21T16:03:25.861Z,2.03
2023-03-21T16:06:18.449Z,2.00
2023-03-21T16:08:48.972Z,2.63
2023-03-21T16:11:25.796Z,3.10
2023-03-21T16:13:54.287Z,2.22
2023-03-21T16:16:24.850Z,2.03
2023-03-21T16:18:53.610Z,1.73
2023-03-21T16:21:26.482Z,2.90
2023-03-21T16:23:55.055Z,2.45
2023-03-21T16:26:25.699Z,3.05
2023-03-21T16:28:53.758Z,2.00
2023-03-21T16:31:24.293Z,1.80
2023-03-21T16:33:53.108Z,1.33
2023-03-21T16:36:25.548Z,1.92
2023-03-21T16:38:54.915Z,1.48
2023-03-21T16:41:24.448Z,2.10
2023-03-21T16:43:53.374Z,1.73
2023-03-21T16:46:23.422Z,1.60
2023-03-21T16:48:55.640Z,2.40
2023-03-21T16:51:29.690Z,1.95
2023-03-21T16:53:57.967Z,1.90
2023-03-21T16:56:28.715Z,2.00
2023-03-21T16:58:59.278Z,1.77
2023-03-21T17:01:27.634Z,1.60
2023-03-21T17:03:56.147Z,2.35
2023-03-21T17:06:27.217Z,1.98
2023-03-21T17:08:56.405Z,1.83
2023-03-21T17:11:31.389Z,1.67
2023-03-21T17:13:59.502Z,2.22
2023-03-21T17:16:27.865Z,2.53
2023-03-21T17:18:56.204Z,1.98
2023-03-21T17:21:27.183Z,1.70
2023-03-21T17:23:56.575Z,1.90
2023-03-21T17:26:26.571Z,2.00
2023-03-21T17:28:56.798Z,1.80
2023-03-21T17:31:26.663Z,2.40
2023-03-21T17:33:55.337Z,2.00
2023-03-21T17:36:29.346Z,2.20
2023-03-21T17:38:58.834Z,2.17
2023-03-21T17:41:27.831Z,1.80
2023-03-21T17:43:57.120Z,2.00
2023-03-21T17:46:29.108Z,2.00
2023-03-21T17:48:57.268Z,2.13
2023-03-21T17:51:30.133Z,2.22
2023-03-21T17:53:58.488Z,1.90
2023-03-21T17:56:29.885Z,1.85
2023-03-21T17:58:59.605Z,2.40
2023-03-21T18:01:28.256Z,2.00
2023-03-21T18:03:56.287Z,2.13
2023-03-21T18:06:28.135Z,2.10
2023-03-21T18:08:57.589Z,2.20
2023-03-21T18:11:28.780Z,2.07
2023-03-21T18:14:13.714Z,2.10
2023-03-21T18:16:43.461Z,1.80
2023-03-21T18:19:12.865Z,2.50
2023-03-21T18:21:44.823Z,2.35
2023-03-21T18:24:13.586Z,3.10
2023-03-21T18:26:41.794Z,2.42
2023-03-21T18:30:07.923Z,2.60
2023-03-21T18:32:06.667Z,2.22
2023-03-21T18:34:35.898Z,2.03
2023-03-21T18:37:07.541Z,2.43
2023-03-21T18:39:37.902Z,1.80
2023-03-21T18:42:07.202Z,2.05
2023-03-21T18:44:45.481Z,2.22
2023-03-21T18:47:15.902Z,1.98
2023-03-21T18:50:18.824Z,2.07
2023-03-21T18:52:37.334Z,2.50
2023-03-21T18:55:06.441Z,2.47
2023-03-21T18:57:37.804Z,2.70
2023-03-21T19:00:12.603Z,1.90
2023-03-21T19:02:46.892Z,2.40
2023-03-21T19:05:16.824Z,1.90
2023-03-21T19:07:49.329Z,1.92
2023-03-21T19:10:19.924Z,2.30
2023-03-21T19:12:49.151Z,2.42
2023-03-21T19:15:19.891Z,2.40
2023-03-21T19:20:37.848Z,2.60
2023-03-21T19:23:09.474Z,2.60
2023-03-21T19:25:38.101Z,3.20
2023-03-21T19:28:06.420Z,2.53
2023-03-21T19:30:34.804Z,2.72
2023-03-21T19:33:05.194Z,2.92
2023-03-21T19:35:37.327Z,2.88
2023-03-21T19:38:06.131Z,2.65
2023-03-21T19:40:36.423Z,2.83
2023-03-21T19:43:29.923Z,2.78
2023-03-21T19:45:53.931Z,3.03
2023-03-21T19:48:23.467Z,2.63
2023-03-21T19:51:20.548Z,2.80
2023-03-21T19:53:40.745Z,3.03
2023-03-21T19:56:20.781Z,2.55
2023-03-21T19:58:50.129Z,3.10
2023-03-21T20:01:18.087Z,3.00
2023-03-21T20:03:46.545Z,3.00
2023-03-21T20:06:14.504Z,3.07
2023-03-21T20:09:13.673Z,3.03
2023-03-21T20:11:32.302Z,3.03
2023-03-21T20:14:02.976Z,3.13
2023-03-21T20:16:35.117Z,3.13
2023-03-21T20:19:04.485Z,3.10
2023-03-21T20:21:42.194Z,3.08
2023-03-21T20:24:14.214Z,3.00
2023-03-21T20:26:45.046Z,2.75
2023-03-21T20:30:07.438Z,2.80
2023-03-21T20:32:01.841Z,3.00
2023-03-21T20:34:30.882Z,3.03
2023-03-21T20:37:00.478Z,3.97
2023-03-21T20:39:29.905Z,3.58
2023-03-21T20:42:00.868Z,2.88
2023-03-21T20:47:18.639Z,3.50
2023-03-21T20:49:46.596Z,3.63
2023-03-21T20:52:52.140Z,3.20
2023-03-21T20:55:03.330Z,3.10
2023-03-21T20:57:34.254Z,2.57
2023-03-21T21:00:09.038Z,3.08
2023-03-21T21:02:37.279Z,3.67
2023-03-21T21:05:27.839Z,3.65
2023-03-21T21:07:58.925Z,3.28
2023-03-21T21:10:26.938Z,3.43
2023-03-21T21:12:56.875Z,3.10
2023-03-21T21:15:25.067Z,3.63
2023-03-21T21:18:06.589Z,3.47
2023-03-21T21:20:36.153Z,3.50
2023-03-21T21:23:04.343Z,3.50
2023-03-21T21:25:33.427Z,3.53
2023-03-21T21:28:02.820Z,3.75
2023-03-21T21:30:32.421Z,3.65
2023-03-21T21:33:00.750Z,3.63
2023-03-21T21:35:28.766Z,3.50
2023-03-21T21:37:56.721Z,3.80
2023-03-21T21:40:25.562Z,4.13
2023-03-21T21:42:53.592Z,4.20
2023-03-21T21:45:23.391Z,3.70
2023-03-21T21:47:51.500Z,3.30
2023-03-21T21:50:22.237Z,3.85
2023-03-21T21:52:54.201Z,3.45
2023-03-21T21:55:23.073Z,3.80
2023-03-21T21:57:52.514Z,3.80
2023-03-21T22:00:21.476Z,3.63
2023-03-21T22:02:51.267Z,3.50
2023-03-21T22:05:19.445Z,3.45
2023-03-21T22:07:49.512Z,3.90
2023-03-21T22:10:17.752Z,3.88
2023-03-21T22:12:45.809Z,3.77
2023-03-21T22:15:14.201Z,3.47
2023-03-21T22:17:42.309Z,3.72
2023-03-21T22:20:17.900Z,3.72
2023-03-21T22:22:46.020Z,3.72
2023-03-21T22:25:15.555Z,3.50
2023-03-21T22:27:44.344Z,4.00
2023-03-21T22:30:15.728Z,4.00
2023-03-21T22:32:44.176Z,4.00
2023-03-21T22:35:13.730Z,4.22
2023-03-21T22:37:43.663Z,3.97
2023-03-21T22:40:14.172Z,4.00
2023-03-21T22:42:42.981Z,4.40
2023-03-21T22:45:12.489Z,3.85
2023-03-21T22:47:40.405Z,3.55
2023-03-21T22:50:09.711Z,4.00
2023-03-21T22:52:38.868Z,3.40
2023-03-21T22:55:09.652Z,4.00
2023-03-21T22:57:37.446Z,4.20
2023-03-21T23:00:13.096Z,4.07
2023-03-21T23:02:41.746Z,4.20
2023-03-21T23:05:10.879Z,4.15
2023-03-21T23:07:40.524Z,3.65
2023-03-21T23:10:12.017Z,3.60
2023-03-21T23:12:40.188Z,3.30
2023-03-21T23:15:09.470Z,4.00
2023-03-21T23:17:38.014Z,4.22
2023-03-21T23:20:08.489Z,3.95
2023-03-21T23:22:36.869Z,3.60
2023-03-21T23:25:07.696Z,4.55
2023-03-21T23:27:36.142Z,4.13
2023-03-21T23:30:05.126Z,3.70
2023-03-21T23:32:33.301Z,4.07
2023-03-21T23:35:01.442Z,3.50
2023-03-21T23:37:30.458Z,4.25
2023-03-21T23:39:58.285Z,3.87
2023-03-21T23:42:29.739Z,3.90
2023-03-21T23:44:58.090Z,3.70
2023-03-21T23:47:25.941Z,4.05
2023-03-21T23:49:54.450Z,3.95
2023-03-21T23:52:22.338Z,3.80
2023-03-21T23:54:50.490Z,3.75
2023-03-21T23:57:18.659Z,4.07
2023-03-21T23:59:47.835Z,4.03
